createdAt,value
2019-04-28T00:00:42.324Z,12.77
2019-04-28T00:03:12.321Z,13.00
2019-04-28T00:05:42.447Z,12.27
2019-04-28T00:08:12.944Z,13.57
2019-04-28T00:10:43.488Z,12.70
2019-04-28T00:13:13.897Z,13.10
2019-04-28T00:15:44.071Z,12.83
2019-04-28T00:18:15.478Z,14.27
2019-04-28T00:21:03.762Z,13.37
2019-04-28T00:23:51.782Z,13.07
2019-04-28T00:26:32.849Z,11.67
2019-04-28T00:29:02.877Z,11.33
2019-04-28T00:31:33.425Z,11.13
2019-04-28T00:34:03.478Z,10.60
2019-04-28T00:36:33.623Z,10.47
2019-04-28T00:39:05.112Z,10.00
2019-04-28T00:41:35.307Z,9.87
2019-04-28T00:44:05.318Z,9.00
2019-04-28T00:46:37.248Z,8.03
2019-04-28T00:49:08.539Z,8.17
2019-04-28T00:51:38.556Z,8.80
2019-04-28T00:54:08.703Z,8.80
2019-04-28T00:56:38.939Z,9.10
2019-04-28T00:59:09.148Z,8.70
2019-04-28T01:01:42.544Z,8.27
2019-04-28T01:04:12.968Z,7.30
2019-04-28T01:06:43.172Z,7.53
2019-04-28T01:09:13.933Z,7.50
2019-04-28T01:11:44.031Z,6.90
2019-04-28T01:14:14.159Z,7.03
2019-04-28T01:16:49.834Z,7.40
2019-04-28T01:19:25.250Z,7.10
2019-04-28T01:22:00.369Z,7.77
2019-04-28T01:24:30.530Z,9.77
2019-04-28T01:27:00.890Z,9.23
2019-04-28T01:29:30.966Z,9.40
2019-04-28T01:32:05.415Z,10.13
2019-04-28T01:34:35.808Z,10.17
2019-04-28T01:37:06.086Z,10.90
2019-04-28T01:39:36.060Z,11.13
2019-04-28T01:42:06.317Z,12.27
2019-04-28T01:44:36.942Z,13.27
2019-04-28T01:47:06.999Z,12.10
2019-04-28T01:49:37.370Z,14.20
2019-04-28T01:52:07.575Z,13.83
2019-04-28T01:54:37.919Z,12.87
2019-04-28T01:57:09.978Z,12.93
2019-04-28T01:59:40.462Z,13.03
2019-04-28T02:02:10.597Z,12.37
2019-04-28T02:04:40.786Z,12.53
2019-04-28T02:07:11.207Z,13.17
2019-04-28T02:09:41.406Z,13.23
2019-04-28T02:12:11.564Z,11.70
2019-04-28T02:14:41.560Z,11.63
2019-04-28T02:17:11.609Z,12.23
2019-04-28T02:19:41.601Z,12.23
2019-04-28T02:22:20.189Z,11.73
2019-04-28T02:24:51.478Z,11.97
2019-04-28T02:27:21.761Z,11.93
2019-04-28T02:29:51.926Z,12.63
2019-04-28T02:32:24.392Z,13.53
2019-04-28T02:34:53.922Z,12.67
2019-04-28T02:37:24.142Z,13.87
2019-04-28T02:39:54.250Z,13.93
2019-04-28T02:42:24.236Z,15.17
2019-04-28T02:44:54.421Z,14.77
2019-04-28T02:47:24.813Z,14.93
2019-04-28T02:50:00.921Z,15.33
2019-04-28T02:52:51.618Z,14.10
2019-04-28T02:55:21.296Z,15.77
2019-04-28T02:57:51.908Z,16.33
2019-04-28T03:00:22.710Z,16.10
2019-04-28T03:02:52.895Z,16.10
2019-04-28T03:05:23.342Z,17.37
2019-04-28T03:07:53.753Z,17.03
2019-04-28T03:10:24.069Z,17.93
2019-04-28T03:12:54.503Z,17.80
2019-04-28T03:15:24.741Z,18.77
2019-04-28T03:17:55.129Z,17.83
2019-04-28T03:20:25.252Z,18.50
2019-04-28T03:22:55.646Z,19.83
2019-04-28T03:25:30.252Z,19.97
2019-04-28T03:28:00.872Z,18.40
2019-04-28T03:30:43.346Z,18.93
2019-04-28T03:33:19.049Z,19.03
2019-04-28T03:35:44.927Z,20.27
2019-04-28T03:38:14.786Z,18.17
2019-04-28T03:40:44.797Z,19.87
2019-04-28T03:43:15.021Z,18.70
2019-04-28T03:45:52.480Z,19.87
2019-04-28T03:48:22.599Z,18.90
2019-04-28T03:50:52.714Z,17.77
2019-04-28T03:53:22.909Z,19.97
2019-04-28T03:55:53.287Z,19.00
2019-04-28T03:58:24.272Z,19.13
2019-04-28T04:00:54.781Z,19.97
2019-04-28T04:03:24.999Z,19.70
2019-04-28T04:05:55.198Z,18.97
2019-04-28T04:08:25.653Z,19.63
2019-04-28T04:11:15.633Z,18.77
2019-04-28T04:13:47.572Z,19.43
2019-04-28T04:16:34.411Z,19.87
2019-04-28T04:19:06.256Z,19.50
2019-04-28T04:21:36.372Z,18.47
2019-04-28T04:24:06.417Z,19.10
2019-04-28T04:26:36.727Z,19.00
2019-04-28T04:29:06.999Z,19.20
2019-04-28T04:31:37.185Z,18.37
2019-04-28T04:34:07.398Z,19.20
2019-04-28T04:36:37.599Z,18.13
2019-04-28T04:39:10.534Z,18.30
2019-04-28T04:41:42.910Z,19.07
2019-04-28T04:44:11.934Z,18.77
2019-04-28T04:46:42.307Z,17.53
2019-04-28T04:49:13.634Z,16.40
2019-04-28T04:51:45.853Z,16.13
2019-04-28T04:54:16.314Z,16.97
2019-04-28T04:56:46.436Z,16.03
2019-04-28T04:59:16.375Z,15.60
2019-04-28T05:01:50.154Z,16.00
2019-04-28T05:04:24.424Z,14.93
2019-04-28T05:06:54.652Z,15.07
2019-04-28T05:09:25.093Z,14.10
2019-04-28T05:11:55.303Z,13.90
2019-04-28T05:14:25.537Z,13.87
2019-04-28T05:16:55.426Z,13.07
2019-04-28T05:19:25.788Z,13.77
2019-04-28T05:21:56.011Z,12.33
2019-04-28T05:24:37.063Z,12.20
2019-04-28T05:27:07.298Z,12.53
2019-04-28T05:29:39.436Z,11.07
2019-04-28T05:32:10.812Z,12.43
2019-04-28T05:34:46.824Z,11.57
2019-04-28T05:37:13.215Z,11.37
2019-04-28T05:39:43.473Z,11.03
2019-04-28T05:42:13.793Z,11.40
2019-04-28T05:44:43.979Z,11.07
2019-04-28T05:47:14.212Z,10.87
2019-04-28T05:50:03.243Z,11.17
2019-04-28T05:52:51.917Z,11.67
2019-04-28T05:55:26.635Z,10.93
2019-04-28T05:58:04.237Z,11.30
2019-04-28T06:00:36.192Z,11.90
2019-04-28T06:03:10.610Z,12.87
2019-04-28T06:05:40.739Z,13.47
2019-04-28T06:08:15.579Z,11.80
2019-04-28T06:10:45.810Z,11.23
2019-04-28T06:13:15.827Z,11.57
2019-04-28T06:15:46.434Z,10.63
2019-04-28T06:18:16.591Z,11.80
2019-04-28T06:20:59.256Z,11.70
2019-04-28T06:23:29.499Z,11.17
2019-04-28T06:25:59.953Z,11.10
2019-04-28T06:28:30.252Z,11.90
2019-04-28T06:31:00.479Z,10.70
2019-04-28T06:33:30.718Z,10.67
2019-04-28T06:36:01.009Z,10.30
2019-04-28T06:38:31.152Z,9.87
2019-04-28T06:41:01.398Z,9.90
2019-04-28T06:43:31.613Z,9.97
2019-04-28T06:46:01.841Z,9.47
2019-04-28T06:48:32.190Z,9.33
2019-04-28T06:51:02.181Z,9.70
2019-04-28T06:53:32.250Z,8.87
2019-04-28T06:56:02.377Z,9.17
2019-04-28T06:58:33.455Z,8.43
2019-04-28T07:01:03.642Z,8.60
2019-04-28T07:03:33.597Z,8.40
2019-04-28T07:06:03.745Z,9.37
2019-04-28T07:08:33.809Z,9.33
2019-04-28T07:11:03.946Z,8.60
2019-04-28T07:13:33.913Z,7.97
2019-04-28T07:16:03.927Z,8.00
2019-04-28T07:18:33.951Z,8.17
2019-04-28T07:21:05.878Z,8.07
2019-04-28T07:23:37.465Z,7.10
2019-04-28T07:26:07.489Z,6.20
2019-04-28T07:28:37.555Z,6.83
2019-04-28T07:31:07.605Z,7.27
2019-04-28T07:33:37.678Z,6.83
2019-04-28T07:36:07.574Z,6.17
2019-04-28T07:38:37.657Z,7.53
2019-04-28T07:41:07.683Z,6.53
2019-04-28T07:43:38.957Z,6.27
2019-04-28T07:46:09.308Z,5.70
2019-04-28T07:48:39.350Z,5.87
2019-04-28T07:51:09.408Z,6.27
2019-04-28T07:53:55.912Z,6.13
2019-04-28T07:56:25.877Z,5.13
2019-04-28T07:58:55.905Z,6.00
2019-04-28T08:01:26.002Z,5.17
2019-04-28T08:03:57.548Z,4.90
2019-04-28T08:06:27.657Z,5.47
2019-04-28T08:08:57.744Z,4.87
2019-04-28T08:11:27.590Z,5.20
2019-04-28T08:13:57.672Z,5.57
2019-04-28T08:16:27.937Z,5.67
2019-04-28T08:18:58.364Z,5.30
2019-04-28T08:21:28.480Z,4.27
2019-04-28T08:23:58.572Z,4.87
2019-04-28T08:26:28.852Z,4.87
2019-04-28T08:28:58.954Z,5.27
2019-04-28T08:31:33.407Z,4.43
2019-04-28T08:34:05.126Z,4.90
2019-04-28T08:36:35.230Z,5.27
2019-04-28T08:39:07.002Z,4.70
2019-04-28T08:41:37.128Z,4.13
2019-04-28T08:44:07.385Z,3.73
2019-04-28T08:46:38.989Z,4.50
2019-04-28T08:49:09.343Z,4.73
2019-04-28T08:51:39.452Z,4.30
2019-04-28T08:54:09.481Z,4.20
2019-04-28T08:56:41.476Z,4.60
2019-04-28T08:59:11.676Z,4.70
2019-04-28T09:01:41.878Z,4.07
2019-04-28T09:04:15.582Z,3.93
2019-04-28T09:06:43.772Z,4.37
2019-04-28T09:09:15.578Z,5.30
2019-04-28T09:11:45.760Z,4.43
2019-04-28T09:14:16.092Z,4.30
2019-04-28T09:16:46.026Z,4.80
2019-04-28T09:19:16.150Z,4.50
2019-04-28T09:21:46.181Z,4.57
2019-04-28T09:24:16.325Z,4.70
2019-04-28T09:26:46.282Z,4.63
2019-04-28T09:29:16.307Z,5.00
2019-04-28T09:31:46.533Z,5.03
2019-04-28T09:34:27.808Z,4.23
2019-04-28T09:36:48.317Z,4.80
2019-04-28T09:39:20.093Z,4.60
2019-04-28T09:42:07.868Z,4.70
2019-04-28T09:44:38.017Z,4.57
2019-04-28T09:47:08.268Z,4.33
2019-04-28T09:49:38.589Z,5.30
2019-04-28T09:52:09.233Z,5.60
2019-04-28T09:54:39.879Z,5.13
2019-04-28T09:57:10.383Z,5.30
2019-04-28T09:59:40.518Z,5.00
2019-04-28T10:02:10.708Z,5.07
2019-04-28T10:04:41.930Z,4.63
2019-04-28T10:07:12.372Z,5.40
2019-04-28T10:09:42.905Z,4.63
2019-04-28T10:12:26.305Z,5.27
2019-04-28T10:14:45.138Z,4.80
2019-04-28T10:17:15.336Z,5.33
2019-04-28T10:19:45.634Z,5.77
2019-04-28T10:22:16.003Z,5.33
2019-04-28T10:24:46.276Z,5.20
2019-04-28T10:27:16.356Z,5.53
2019-04-28T10:29:46.680Z,5.63
2019-04-28T10:32:17.475Z,5.93
2019-04-28T10:34:54.674Z,6.40
2019-04-28T10:37:19.517Z,6.80
2019-04-28T10:39:51.342Z,5.77
2019-04-28T10:42:21.595Z,5.53
2019-04-28T10:44:53.041Z,5.67
2019-04-28T10:47:23.482Z,6.57
2019-04-28T10:49:54.476Z,5.43
2019-04-28T10:52:25.238Z,6.33
2019-04-28T10:54:56.013Z,7.20
2019-04-28T10:57:26.979Z,7.20
2019-04-28T10:59:57.164Z,7.67
2019-04-28T11:02:27.375Z,7.80
2019-04-28T11:05:08.226Z,8.30
2019-04-28T11:07:31.005Z,7.20
2019-04-28T11:10:05.700Z,9.40
2019-04-28T11:12:35.907Z,8.47
2019-04-28T11:15:08.994Z,9.33
2019-04-28T11:17:39.210Z,9.67
2019-04-28T11:20:09.390Z,8.60
2019-04-28T11:22:39.514Z,9.53
2019-04-28T11:25:09.733Z,8.60
2019-04-28T11:27:39.847Z,8.07
2019-04-28T11:30:10.312Z,8.23
2019-04-28T11:32:42.138Z,7.00
2019-04-28T11:35:21.930Z,7.00
2019-04-28T11:37:51.790Z,7.07
2019-04-28T11:40:22.094Z,7.60
2019-04-28T11:42:52.352Z,7.63
2019-04-28T11:45:23.432Z,7.27
2019-04-28T11:47:53.408Z,7.93
2019-04-28T11:50:23.639Z,7.57
2019-04-28T11:52:53.749Z,7.17
2019-04-28T11:55:24.005Z,7.33
2019-04-28T11:57:54.339Z,8.47
2019-04-28T12:00:26.049Z,6.33
2019-04-28T12:02:57.552Z,5.43
2019-04-28T12:05:34.778Z,4.97
2019-04-28T12:08:04.184Z,4.40
2019-04-28T12:10:50.703Z,4.50
2019-04-28T12:13:25.484Z,4.77
2019-04-28T12:15:57.232Z,4.53
2019-04-28T12:18:28.968Z,3.87
2019-04-28T12:20:59.221Z,4.30
2019-04-28T12:23:29.278Z,4.43
2019-04-28T12:25:59.482Z,4.77
2019-04-28T12:28:29.786Z,4.93
2019-04-28T12:30:59.790Z,5.03
2019-04-28T12:33:29.899Z,5.70
2019-04-28T12:35:59.883Z,5.70
2019-04-28T12:38:30.077Z,6.00
2019-04-28T12:41:00.021Z,6.00
2019-04-28T12:43:30.187Z,5.37
2019-04-28T12:46:00.165Z,6.10
2019-04-28T12:48:32.594Z,6.10
2019-04-28T12:51:02.013Z,5.70
2019-04-28T12:53:32.104Z,5.63
2019-04-28T12:56:02.413Z,6.23
2019-04-28T12:58:32.465Z,6.77
2019-04-28T13:01:05.011Z,5.67
2019-04-28T13:03:42.742Z,5.40
2019-04-28T13:06:14.474Z,5.10
2019-04-28T13:08:44.493Z,5.33
2019-04-28T13:11:14.717Z,5.40
2019-04-28T13:13:46.842Z,5.67
2019-04-28T13:16:16.726Z,5.50
2019-04-28T13:18:47.059Z,5.20
2019-04-28T13:21:17.266Z,5.40
2019-04-28T13:23:47.622Z,5.43
2019-04-28T13:26:17.960Z,5.60
2019-04-28T13:28:48.484Z,4.70
2019-04-28T13:31:18.651Z,5.10
2019-04-28T13:33:56.384Z,4.77
2019-04-28T13:36:20.585Z,4.87
2019-04-28T13:38:50.792Z,5.37
2019-04-28T13:41:21.036Z,4.77
2019-04-28T13:43:51.240Z,4.73
2019-04-28T13:46:23.108Z,4.70
2019-04-28T13:48:53.210Z,5.27
2019-04-28T13:51:23.958Z,4.20
2019-04-28T13:53:54.124Z,4.03
2019-04-28T13:56:24.224Z,3.80
2019-04-28T13:58:56.353Z,3.57
2019-04-28T14:01:28.039Z,3.33
2019-04-28T14:03:59.865Z,3.50
2019-04-28T14:06:31.715Z,3.77
2019-04-28T14:09:02.096Z,4.37
2019-04-28T14:11:32.275Z,4.10
2019-04-28T14:14:02.323Z,3.73
2019-04-28T14:16:32.781Z,3.73
2019-04-28T14:19:02.992Z,5.47
2019-04-28T14:21:33.201Z,4.43
2019-04-28T14:24:04.841Z,4.97
2019-04-28T14:26:35.121Z,4.83
2019-04-28T14:29:05.402Z,5.40
2019-04-28T14:31:36.126Z,5.40
2019-04-28T14:34:06.405Z,7.80
2019-04-28T14:36:42.370Z,7.50
2019-04-28T14:39:09.103Z,6.63
2019-04-28T14:41:42.251Z,5.63
2019-04-28T14:44:12.237Z,5.30
2019-04-28T14:46:44.271Z,5.10
2019-04-28T14:49:14.486Z,4.03
2019-04-28T14:51:44.889Z,4.53
2019-04-28T14:54:15.229Z,5.13
2019-04-28T14:56:46.970Z,5.20
2019-04-28T14:59:17.649Z,5.47
2019-04-28T15:02:10.693Z,6.00
2019-04-28T15:04:57.854Z,5.50
2019-04-28T15:07:41.962Z,5.23
2019-04-28T15:10:30.288Z,5.87
2019-04-28T15:13:00.389Z,6.57
2019-04-28T15:15:30.595Z,5.83
2019-04-28T15:18:00.970Z,6.10
2019-04-28T15:20:31.223Z,5.77
2019-04-28T15:23:01.190Z,6.17
2019-04-28T15:25:31.503Z,5.50
2019-04-28T15:28:01.937Z,5.83
2019-04-28T15:30:32.223Z,5.40
2019-04-28T15:33:02.519Z,5.33
2019-04-28T15:35:32.606Z,5.00
2019-04-28T15:38:05.016Z,5.40
2019-04-28T15:40:34.677Z,4.37
2019-04-28T15:43:04.934Z,4.47
2019-04-28T15:45:35.099Z,4.43
2019-04-28T15:48:05.504Z,4.87
2019-04-28T15:50:35.673Z,4.70
2019-04-28T15:53:05.919Z,4.70
2019-04-28T15:55:37.668Z,6.40
2019-04-28T15:58:27.158Z,5.40
2019-04-28T16:01:00.748Z,4.80
2019-04-28T16:03:32.510Z,4.63
2019-04-28T16:06:14.557Z,4.57
2019-04-28T16:08:44.834Z,4.40
2019-04-28T16:11:14.827Z,4.30
2019-04-28T16:13:45.075Z,4.97
2019-04-28T16:16:14.987Z,4.50
2019-04-28T16:18:44.920Z,4.57
2019-04-28T16:21:15.347Z,4.90
2019-04-28T16:23:45.551Z,4.87
2019-04-28T16:26:15.817Z,4.53
2019-04-28T16:28:46.016Z,10.03
2019-04-28T16:31:16.233Z,8.33
2019-04-28T16:33:46.529Z,4.90
2019-04-28T16:36:16.741Z,4.47
2019-04-28T16:38:47.251Z,4.33
2019-04-28T16:41:18.033Z,4.60
2019-04-28T16:43:50.141Z,3.93
2019-04-28T16:46:20.270Z,4.13
2019-04-28T16:48:50.504Z,3.83
2019-04-28T16:51:20.726Z,4.17
2019-04-28T16:53:50.925Z,4.27
2019-04-28T16:56:33.302Z,4.27
2019-04-28T16:59:05.419Z,4.07
2019-04-28T17:01:37.160Z,4.07
2019-04-28T17:04:07.475Z,3.83
2019-04-28T17:06:37.691Z,4.10
2019-04-28T17:09:08.645Z,4.47
2019-04-28T17:11:40.950Z,4.53
2019-04-28T17:14:11.529Z,4.93
2019-04-28T17:16:42.101Z,4.23
2019-04-28T17:19:12.608Z,4.30
2019-04-28T17:21:43.169Z,4.43
2019-04-28T17:24:13.349Z,4.27
2019-04-28T17:26:44.146Z,3.67
2019-04-28T17:29:14.458Z,3.83
2019-04-28T17:31:44.559Z,2.87
2019-04-28T17:34:14.850Z,2.80
2019-04-28T17:36:45.077Z,3.00
2019-04-28T17:39:16.843Z,2.80
2019-04-28T17:41:47.342Z,2.90
2019-04-28T17:44:18.040Z,3.00
2019-04-28T17:46:48.666Z,3.00
2019-04-28T17:49:20.770Z,3.00
2019-04-28T17:51:52.151Z,2.60
2019-04-28T17:54:22.504Z,2.73
2019-04-28T17:56:52.873Z,3.00
2019-04-28T17:59:23.159Z,3.43
2019-04-28T18:02:10.464Z,3.07
2019-04-28T18:04:42.434Z,3.27
2019-04-28T18:07:32.624Z,3.10
2019-04-28T18:10:03.230Z,2.93
2019-04-28T18:12:33.477Z,3.10
2019-04-28T18:15:09.060Z,3.50
2019-04-28T18:17:40.553Z,2.90
2019-04-28T18:20:12.245Z,3.30
2019-04-28T18:22:42.367Z,3.77
2019-04-28T18:25:12.489Z,3.90
2019-04-28T18:27:42.386Z,4.13
2019-04-28T18:30:14.511Z,3.63
2019-04-28T18:32:46.279Z,3.10
2019-04-28T18:35:33.022Z,2.97
2019-04-28T18:38:07.600Z,3.40
2019-04-28T18:40:39.546Z,3.03
2019-04-28T18:43:11.201Z,3.20
2019-04-28T18:45:41.432Z,3.70
2019-04-28T18:48:11.685Z,3.33
2019-04-28T18:50:42.890Z,2.97
2019-04-28T18:53:12.961Z,3.40
2019-04-28T18:55:43.285Z,3.53
2019-04-28T18:58:13.375Z,3.10
2019-04-28T19:00:45.164Z,3.57
2019-04-28T19:03:15.148Z,3.30
2019-04-28T19:05:46.908Z,3.93
2019-04-28T19:08:27.780Z,4.13
2019-04-28T19:10:59.820Z,3.73
2019-04-28T19:13:34.492Z,3.57
2019-04-28T19:16:06.611Z,3.50
2019-04-28T19:18:38.451Z,3.37
2019-04-28T19:21:08.490Z,3.70
2019-04-28T19:23:38.750Z,3.97
2019-04-28T19:26:08.829Z,3.43
2019-04-28T19:28:39.121Z,4.23
2019-04-28T19:31:09.148Z,4.00
2019-04-28T19:33:39.225Z,4.20
2019-04-28T19:36:09.387Z,3.87
2019-04-28T19:38:39.609Z,5.70
2019-04-28T19:41:09.884Z,4.00
2019-04-28T19:43:39.895Z,4.10
2019-04-28T19:46:11.653Z,4.37
2019-04-28T19:48:41.527Z,4.33
2019-04-28T19:51:11.706Z,4.17
2019-04-28T19:53:41.985Z,3.97
2019-04-28T19:56:30.018Z,4.47
2019-04-28T19:59:17.683Z,4.33
2019-04-28T20:01:48.234Z,3.93
2019-04-28T20:04:18.454Z,4.57
2019-04-28T20:06:49.399Z,4.70
2019-04-28T20:09:20.095Z,4.43
2019-04-28T20:11:51.078Z,4.70
2019-04-28T20:14:21.700Z,4.77
2019-04-28T20:16:52.148Z,4.23
2019-04-28T20:19:22.571Z,5.10
2019-04-28T20:21:53.984Z,4.73
2019-04-28T20:24:24.627Z,4.40
2019-04-28T20:26:55.369Z,4.53
2019-04-28T20:29:26.261Z,4.90
2019-04-28T20:31:57.000Z,4.70
2019-04-28T20:34:27.526Z,4.87
2019-04-28T20:37:11.509Z,4.97
2019-04-28T20:39:41.929Z,5.17
2019-04-28T20:42:16.465Z,4.77
2019-04-28T20:44:46.654Z,5.33
2019-04-28T20:47:16.875Z,5.37
2019-04-28T20:49:46.870Z,4.77
2019-04-28T20:52:17.176Z,5.17
2019-04-28T20:54:47.587Z,5.67
2019-04-28T20:57:17.956Z,5.37
2019-04-28T20:59:48.164Z,4.80
2019-04-28T21:02:18.485Z,6.00
2019-04-28T21:04:48.818Z,5.77
2019-04-28T21:07:19.129Z,6.17
2019-04-28T21:09:49.493Z,5.20
2019-04-28T21:12:19.567Z,4.90
2019-04-28T21:14:49.880Z,6.33
2019-04-28T21:17:20.232Z,5.73
2019-04-28T21:19:50.440Z,5.70
2019-04-28T21:22:20.569Z,6.23
2019-04-28T21:24:52.138Z,5.90
2019-04-28T21:27:22.320Z,5.57
2019-04-28T21:29:52.483Z,6.23
2019-04-28T21:32:22.408Z,5.57
2019-04-28T21:34:52.620Z,7.13
2019-04-28T21:37:22.649Z,6.23
2019-04-28T21:39:54.734Z,6.43
2019-04-28T21:42:26.474Z,7.07
2019-04-28T21:44:58.023Z,6.27
2019-04-28T21:47:29.759Z,7.00
2019-04-28T21:49:59.676Z,6.80
2019-04-28T21:52:30.179Z,6.23
2019-04-28T21:55:00.638Z,6.90
2019-04-28T21:57:30.965Z,6.50
2019-04-28T22:00:01.135Z,6.47
2019-04-28T22:02:31.244Z,7.40
2019-04-28T22:05:01.765Z,6.77
2019-04-28T22:07:32.269Z,6.80
2019-04-28T22:10:04.272Z,7.17
2019-04-28T22:12:34.691Z,7.60
2019-04-28T22:15:06.776Z,7.10
2019-04-28T22:17:36.764Z,7.87
2019-04-28T22:20:08.376Z,7.77
2019-04-28T22:22:38.808Z,7.60
2019-04-28T22:25:12.535Z,7.60
2019-04-28T22:27:42.499Z,7.90
2019-04-28T22:30:25.204Z,7.20
2019-04-28T22:32:55.413Z,7.90
2019-04-28T22:35:25.837Z,7.87
2019-04-28T22:37:56.217Z,7.87
2019-04-28T22:40:26.649Z,8.03
2019-04-28T22:42:57.070Z,8.37
2019-04-28T22:45:27.160Z,8.40
2019-04-28T22:47:57.636Z,8.67
2019-04-28T22:50:39.660Z,8.80
2019-04-28T22:53:09.927Z,8.63
2019-04-28T22:55:47.719Z,9.37
2019-04-28T22:58:31.811Z,9.43
2019-04-28T23:01:06.848Z,8.87
2019-04-28T23:03:47.438Z,9.20
2019-04-28T23:06:17.952Z,10.07
2019-04-28T23:08:48.204Z,10.03
2019-04-28T23:11:18.386Z,9.50
2019-04-28T23:13:48.542Z,9.70
2019-04-28T23:16:18.779Z,11.27
2019-04-28T23:18:49.276Z,10.87
2019-04-28T23:21:24.033Z,10.97
2019-04-28T23:23:54.341Z,10.90
2019-04-28T23:26:25.671Z,11.03
2019-04-28T23:28:55.668Z,12.77
2019-04-28T23:31:25.810Z,11.97
2019-04-28T23:33:56.050Z,12.27
2019-04-28T23:36:26.203Z,12.77
2019-04-28T23:38:56.409Z,11.70
2019-04-28T23:41:28.066Z,12.47
2019-04-28T23:43:58.193Z,12.57
2019-04-28T23:46:29.821Z,12.87
2019-04-28T23:49:00.161Z,13.70
2019-04-28T23:51:43.923Z,14.10
2019-04-28T23:54:14.009Z,15.07
2019-04-28T23:56:44.137Z,12.83
2019-04-28T23:59:14.300Z,13.93
